Time;durP1;ratioP1;P1;durP2;ratioP2;P2;SDS_P1;SDS_P2;PMS_P1;PMS_P2;Temp;Humidity;BMP_temperature;BMP_pressure;BME280_temperature;BME280_humidity;BME280_pressure;Samples;Min_cycle;Max_cycle;Signal;HPM_P1;HPM_P2
2021/05/27 00:02:06;;;;;;;4.15;1.33;;;;;;;;;;6149525;23;20320;-80
2021/05/27 00:04:52;;;;;;;1.55;1.23;;;;;;;;;;6143864;23;19993;-81
2021/05/27 00:07:37;;;;;;;2.25;1.08;;;;;;;;;;6148716;23;20016;-81
2021/05/27 00:10:24;;;;;;;2.65;1.35;;;;;;;;;;6147248;23;20006;-82
2021/05/27 00:13:09;;;;;;;4.40;2.00;;;;;;;;;;6145673;23;20032;-82
2021/05/27 00:15:54;;;;;;;3.25;1.20;;;;;;;;;;6165659;23;20044;-80
2021/05/27 00:18:39;;;;;;;3.17;1.40;;;;;;;;;;6168601;23;20032;-80
2021/05/27 00:21:25;;;;;;;1.50;1.02;;;;;;;;;;6148799;23;20005;-80
2021/05/27 00:24:10;;;;;;;3.20;1.75;;;;;;;;;;6168585;23;20002;-80
2021/05/27 00:26:55;;;;;;;2.00;1.20;;;;;;;;;;6149935;23;20096;-81
2021/05/27 00:29:40;;;;;;;1.52;1.08;;;;;;;;;;6169302;23;20004;-82
2021/05/27 00:32:26;;;;;;;3.72;1.40;;;;;;;;;;6169654;23;20530;-80
2021/05/27 00:35:11;;;;;;;1.77;1.33;;;;;;;;;;6168789;23;20012;-80
2021/05/27 00:37:56;;;;;;;2.83;1.83;;;;;;;;;;6148657;23;20493;-81
2021/05/27 00:40:42;;;;;;;1.92;1.30;;;;;;;;;;6147437;23;20423;-80
2021/05/27 00:43:27;;;;;;;1.40;1.10;;;;;;;;;;6170169;23;19997;-80
2021/05/27 00:46:12;;;;;;;1.90;1.10;;;;;;;;;;6168465;23;20055;-79
2021/05/27 00:49:01;;;;;;;2.15;1.33;;;;;;;;;;6149120;23;20484;-82
2021/05/27 00:51:47;;;;;;;1.23;1.00;;;;;;;;;;6168065;23;20002;-81
2021/05/27 00:54:33;;;;;;;3.03;2.08;;;;;;;;;;6148873;23;20442;-81
2021/05/27 00:57:32;;;;;;;1.38;1.10;;;;;;;;;;6149423;23;20648;-81
2021/05/27 01:00:18;;;;;;;1.48;1.00;;;;;;;;;;6148285;23;20013;-82
2021/05/27 01:03:03;;;;;;;2.50;1.48;;;;;;;;;;6148802;23;20005;-81
2021/05/27 01:05:49;;;;;;;3.70;1.40;;;;;;;;;;6146812;23;20002;-81
2021/05/27 01:08:34;;;;;;;3.22;1.38;;;;;;;;;;6149061;23;20077;-80
2021/05/27 01:11:19;;;;;;;2.20;1.30;;;;;;;;;;6147881;23;20339;-81
2021/05/27 01:14:11;;;;;;;2.63;1.52;;;;;;;;;;6170041;23;20008;-81
2021/05/27 01:16:56;;;;;;;2.55;1.35;;;;;;;;;;6147449;23;19994;-81
2021/05/27 01:19:42;;;;;;;4.93;2.03;;;;;;;;;;6148316;23;20069;-81
2021/05/27 01:22:27;;;;;;;3.63;1.83;;;;;;;;;;6147238;23;19997;-80
2021/05/27 01:25:12;;;;;;;1.98;1.33;;;;;;;;;;6146151;23;20065;-81
2021/05/27 01:27:58;;;;;;;6.70;3.05;;;;;;;;;;6168251;23;20350;-80
2021/05/27 01:30:44;;;;;;;2.42;1.52;;;;;;;;;;6148147;23;20020;-81
2021/05/27 01:33:29;;;;;;;1.40;1.30;;;;;;;;;;6150525;23;20505;-82
2021/05/27 01:36:14;;;;;;;2.03;1.40;;;;;;;;;;6167309;23;20020;-81
2021/05/27 01:38:59;;;;;;;4.47;1.60;;;;;;;;;;6169509;23;20050;-82
2021/05/27 01:41:45;;;;;;;2.05;1.20;;;;;;;;;;6147733;23;19998;-82
2021/05/27 01:44:30;;;;;;;3.72;1.30;;;;;;;;;;6149160;23;20005;-82
2021/05/27 01:47:15;;;;;;;3.75;1.42;;;;;;;;;;6146062;23;20001;-82
2021/05/27 01:50:00;;;;;;;2.33;1.65;;;;;;;;;;6148583;23;20095;-83
2021/05/27 01:52:46;;;;;;;1.80;1.25;;;;;;;;;;6147393;23;20096;-83
2021/05/27 01:55:31;;;;;;;3.10;1.42;;;;;;;;;;6151640;23;20020;-83
2021/05/27 01:58:18;;;;;;;3.55;1.65;;;;;;;;;;6170368;23;20012;-83
2021/05/27 02:01:04;;;;;;;6.05;1.67;;;;;;;;;;6149773;23;20004;-83
2021/05/27 02:03:49;;;;;;;2.60;1.63;;;;;;;;;;6148196;23;20089;-83
2021/05/27 02:06:34;;;;;;;2.45;1.95;;;;;;;;;;6169967;23;20407;-82
2021/05/27 02:09:19;;;;;;;3.65;1.80;;;;;;;;;;6147948;23;20033;-81
2021/05/27 02:12:05;;;;;;;2.33;1.15;;;;;;;;;;6172066;23;20013;-82
2021/05/27 02:14:50;;;;;;;4.55;1.50;;;;;;;;;;6170143;23;20556;-83
2021/05/27 02:17:36;;;;;;;1.67;1.10;;;;;;;;;;6150743;23;20076;-83
2021/05/27 02:20:21;;;;;;;6.15;1.38;;;;;;;;;;6151094;23;20017;-82
2021/05/27 02:23:06;;;;;;;1.88;1.30;;;;;;;;;;6147874;23;20417;-82
2021/05/27 02:25:52;;;;;;;3.80;1.40;;;;;;;;;;6171612;23;20426;-82
2021/05/27 02:28:37;;;;;;;3.05;1.48;;;;;;;;;;6149892;23;19997;-82
2021/05/27 02:31:22;;;;;;;2.47;1.20;;;;;;;;;;6151041;23;20072;-81
2021/05/27 02:34:08;;;;;;;1.52;1.17;;;;;;;;;;6170074;23;20080;-82
2021/05/27 02:36:53;;;;;;;1.83;1.42;;;;;;;;;;6150792;23;20394;-82
2021/05/27 02:39:38;;;;;;;2.80;1.50;;;;;;;;;;6170392;23;19993;-83
2021/05/27 02:42:23;;;;;;;3.65;1.23;;;;;;;;;;6150879;23;20028;-82
2021/05/27 02:45:09;;;;;;;1.90;1.20;;;;;;;;;;6170533;23;20002;-81
2021/05/27 02:47:54;;;;;;;5.50;1.42;;;;;;;;;;6170309;23;20013;-82
2021/05/27 02:50:39;;;;;;;2.20;1.30;;;;;;;;;;6169773;23;20001;-80
2021/05/27 02:53:25;;;;;;;3.05;1.48;;;;;;;;;;6150666;23;20009;-81
2021/05/27 02:56:10;;;;;;;3.25;1.80;;;;;;;;;;6149024;23;20019;-81
2021/05/27 02:58:55;;;;;;;2.75;1.90;;;;;;;;;;6171132;23;20688;-81
2021/05/27 03:01:40;;;;;;;3.08;1.52;;;;;;;;;;6147168;23;20650;-81
2021/05/27 03:04:26;;;;;;;1.85;1.42;;;;;;;;;;6171002;23;20056;-81
2021/05/27 03:07:11;;;;;;;4.88;1.40;;;;;;;;;;6149474;23;20059;-81
2021/05/27 03:09:56;;;;;;;3.17;1.60;;;;;;;;;;6148638;23;20084;-80
2021/05/27 03:12:41;;;;;;;4.20;1.60;;;;;;;;;;6149798;23;20002;-81
2021/05/27 03:15:26;;;;;;;4.80;1.80;;;;;;;;;;6169129;23;20005;-81
2021/05/27 03:18:11;;;;;;;3.67;1.65;;;;;;;;;;6150353;23;20371;-83
2021/05/27 03:20:57;;;;;;;3.35;1.85;;;;;;;;;;6169523;23;20107;-82
2021/05/27 03:23:43;;;;;;;5.47;2.35;;;;;;;;;;6167868;23;20001;-82
2021/05/27 03:26:28;;;;;;;3.88;1.25;;;;;;;;;;6169644;23;20005;-82
2021/05/27 03:29:14;;;;;;;2.63;1.48;;;;;;;;;;6150785;23;20001;-82
2021/05/27 03:31:59;;;;;;;3.90;1.63;;;;;;;;;;6169101;23;20121;-82
2021/05/27 03:34:44;;;;;;;4.45;2.20;;;;;;;;;;6149941;23;20001;-81
2021/05/27 03:37:30;;;;;;;1.80;1.30;;;;;;;;;;6168206;23;20088;-81
2021/05/27 03:40:16;;;;;;;4.60;1.55;;;;;;;;;;6149756;23;20001;-80
2021/05/27 03:43:01;;;;;;;2.00;1.42;;;;;;;;;;6148261;23;20477;-80
2021/05/27 03:45:46;;;;;;;3.70;1.30;;;;;;;;;;6169752;23;20001;-81
2021/05/27 03:48:32;;;;;;;5.93;1.48;;;;;;;;;;6167381;23;20028;-81
2021/05/27 03:51:17;;;;;;;2.13;1.30;;;;;;;;;;6149883;23;20434;-81
2021/05/27 03:54:04;;;;;;;4.03;1.73;;;;;;;;;;6149657;23;20132;-82
2021/05/27 03:56:49;;;;;;;3.60;1.40;;;;;;;;;;6148277;23;20001;-82
2021/05/27 04:02:43;;;;;;;3.25;1.83;;;;;;;;;;6148209;23;20431;-81
2021/05/27 04:08:33;;;;;;;5.75;1.73;;;;;;;;;;6148382;23;19997;-81
2021/05/27 04:11:18;;;;;;;4.55;1.60;;;;;;;;;;6170593;23;20001;-81
2021/05/27 04:14:03;;;;;;;3.63;2.13;;;;;;;;;;6147921;23;20161;-82
2021/05/27 04:16:49;;;;;;;2.45;1.88;;;;;;;;;;6149162;23;20004;-81
2021/05/27 04:19:34;;;;;;;7.25;3.45;;;;;;;;;;6168119;23;20493;-82
2021/05/27 04:22:19;;;;;;;6.10;3.30;;;;;;;;;;6149442;23;20028;-82
2021/05/27 04:25:05;;;;;;;4.13;1.60;;;;;;;;;;6169137;23;20003;-82
2021/05/27 04:27:51;;;;;;;5.43;1.48;;;;;;;;;;6149018;23;20056;-83
2021/05/27 04:31:09;;;;;;;2.10;1.60;;;;;;;;;;6149253;23;20025;-83
2021/05/27 04:33:42;;;;;;;3.10;1.55;;;;;;;;;;6169737;23;20002;-81
2021/05/27 04:36:28;;;;;;;3.63;1.70;;;;;;;;;;6149365;23;20028;-83
2021/05/27 04:39:13;;;;;;;3.78;1.73;;;;;;;;;;6148273;23;20005;-82
2021/05/27 04:41:58;;;;;;;3.63;1.98;;;;;;;;;;6170238;23;20013;-83
2021/05/27 04:44:43;;;;;;;3.25;1.92;;;;;;;;;;6168573;23;20001;-81
2021/05/27 04:47:28;;;;;;;2.50;1.70;;;;;;;;;;6149732;23;20000;-81
2021/05/27 04:50:14;;;;;;;5.82;1.67;;;;;;;;;;6147404;23;19994;-82
2021/05/27 04:52:59;;;;;;;20.63;9.52;;;;;;;;;;6146992;23;20001;-81
2021/05/27 04:55:44;;;;;;;11.52;6.68;;;;;;;;;;6173593;23;20069;-81
2021/05/27 04:58:30;;;;;;;2.22;1.88;;;;;;;;;;6146249;23;20002;-81
2021/05/27 05:01:15;;;;;;;3.60;1.65;;;;;;;;;;6148663;23;20002;-80
2021/05/27 05:04:00;;;;;;;2.50;1.55;;;;;;;;;;6149267;23;20032;-81
2021/05/27 05:06:47;;;;;;;5.53;1.90;;;;;;;;;;6169055;23;20001;-81
2021/05/27 05:09:32;;;;;;;6.50;2.10;;;;;;;;;;6148248;23;20001;-81
2021/05/27 05:12:17;;;;;;;4.32;1.45;;;;;;;;;;6149118;23;19997;-80
2021/05/27 05:15:02;;;;;;;3.70;2.03;;;;;;;;;;6168121;23;20541;-81
2021/05/27 05:17:49;;;;;;;3.47;1.60;;;;;;;;;;6169584;23;20417;-79
2021/05/27 05:20:36;;;;;;;4.55;1.60;;;;;;;;;;6146981;23;20023;-79
2021/05/27 05:23:21;;;;;;;6.03;1.83;;;;;;;;;;6123746;23;20004;-79
2021/05/27 05:26:06;;;;;;;5.40;2.25;;;;;;;;;;6145350;23;20028;-81
2021/05/27 05:28:51;;;;;;;4.07;1.58;;;;;;;;;;6149380;23;20001;-81
2021/05/27 05:31:37;;;;;;;6.65;1.90;;;;;;;;;;6148314;23;20097;-81
2021/05/27 05:34:22;;;;;;;20.17;10.38;;;;;;;;;;6149544;23;20739;-80
2021/05/27 05:37:07;;;;;;;5.10;2.78;;;;;;;;;;6148638;23;20005;-85
2021/05/27 05:39:52;;;;;;;3.63;2.00;;;;;;;;;;6149374;23;20004;-80
2021/05/27 05:42:38;;;;;;;3.08;1.60;;;;;;;;;;6147927;23;20514;-80
2021/05/27 05:45:24;;;;;;;3.28;1.80;;;;;;;;;;6149852;23;20006;-79
2021/05/27 05:48:09;;;;;;;2.30;1.30;;;;;;;;;;6149798;23;19997;-80
2021/05/27 05:50:57;;;;;;;3.70;1.65;;;;;;;;;;6151324;23;20001;-80
2021/05/27 05:53:42;;;;;;;4.38;1.60;;;;;;;;;;6151033;23;20008;-79
2021/05/27 05:56:27;;;;;;;4.60;1.70;;;;;;;;;;6147846;23;20000;-78
2021/05/27 05:59:12;;;;;;;4.80;1.70;;;;;;;;;;6147645;23;19993;-78
2021/05/27 06:01:57;;;;;;;4.72;1.98;;;;;;;;;;6146307;23;20002;-77
2021/05/27 06:04:43;;;;;;;4.85;1.40;;;;;;;;;;6150140;23;20100;-78
2021/05/27 06:07:28;;;;;;;3.90;1.58;;;;;;;;;;6166904;23;19994;-77
2021/05/27 06:10:13;;;;;;;4.60;1.40;;;;;;;;;;6150241;23;20084;-78
2021/05/27 06:12:58;;;;;;;3.35;1.70;;;;;;;;;;6148213;23;20480;-78
2021/05/27 06:15:44;;;;;;;3.88;1.23;;;;;;;;;;6146322;23;20611;-78
2021/05/27 06:18:29;;;;;;;2.55;1.42;;;;;;;;;;6130166;23;20517;-78
2021/05/27 06:21:14;;;;;;;3.35;1.80;;;;;;;;;;6145856;23;20008;-77
2021/05/27 06:24:00;;;;;;;2.83;1.35;;;;;;;;;;6147901;23;20016;-78
2021/05/27 06:26:45;;;;;;;5.07;1.70;;;;;;;;;;6170708;23;19998;-78
2021/05/27 06:29:30;;;;;;;6.93;1.40;;;;;;;;;;6148974;23;20006;-79
2021/05/27 06:32:15;;;;;;;3.15;1.50;;;;;;;;;;6171400;23;20001;-79
2021/05/27 06:35:02;;;;;;;9.80;5.38;;;;;;;;;;6148850;23;20007;-80
2021/05/27 06:37:47;;;;;;;14.55;6.68;;;;;;;;;;6149688;23;20008;-79
2021/05/27 06:40:32;;;;;;;4.70;1.40;;;;;;;;;;6149303;23;19998;-78
2021/05/27 06:43:18;;;;;;;3.95;1.33;;;;;;;;;;6169951;23;20009;-78
2021/05/27 06:46:03;;;;;;;4.40;1.45;;;;;;;;;;6149951;23;20068;-79
2021/05/27 06:48:48;;;;;;;3.97;1.80;;;;;;;;;;6149204;23;19997;-80
2021/05/27 06:51:34;;;;;;;4.47;1.20;;;;;;;;;;6150596;23;19997;-77
2021/05/27 06:54:19;;;;;;;4.13;1.80;;;;;;;;;;6146095;23;20075;-78
2021/05/27 06:57:04;;;;;;;3.38;1.55;;;;;;;;;;6147428;23;20075;-78
2021/05/27 06:59:50;;;;;;;6.07;1.30;;;;;;;;;;6147942;23;20002;-78
2021/05/27 07:02:35;;;;;;;4.55;1.30;;;;;;;;;;6149523;23;20104;-78
2021/05/27 07:05:21;;;;;;;5.63;1.40;;;;;;;;;;6148451;23;20005;-79
2021/05/27 07:08:07;;;;;;;1.20;0.90;;;;;;;;;;6149011;23;19998;-78
2021/05/27 07:10:52;;;;;;;4.05;1.10;;;;;;;;;;6148850;23;20025;-77
2021/05/27 07:13:37;;;;;;;3.20;1.30;;;;;;;;;;6150135;23;20006;-78
2021/05/27 07:16:23;;;;;;;3.17;1.10;;;;;;;;;;6148433;23;20398;-78
2021/05/27 07:19:08;;;;;;;3.05;1.10;;;;;;;;;;6149711;23;20343;-78
2021/05/27 07:21:53;;;;;;;2.50;1.30;;;;;;;;;;6148387;23;20001;-80
2021/05/27 07:24:38;;;;;;;5.15;1.40;;;;;;;;;;6149577;23;20001;-79
2021/05/27 07:27:23;;;;;;;2.67;1.77;;;;;;;;;;6150008;23;20005;-78
2021/05/27 07:30:09;;;;;;;2.20;1.23;;;;;;;;;;6152106;23;20044;-78
2021/05/27 07:32:57;;;;;;;2.17;1.15;;;;;;;;;;6149059;23;20513;-77
2021/05/27 07:35:43;;;;;;;2.23;0.90;;;;;;;;;;6143888;23;20409;-78
2021/05/27 07:38:28;;;;;;;2.67;1.25;;;;;;;;;;6146611;23;19997;-77
2021/05/27 07:41:13;;;;;;;4.75;1.83;;;;;;;;;;6148110;23;20002;-77
2021/05/27 07:43:59;;;;;;;4.78;2.17;;;;;;;;;;6150325;23;20002;-77
2021/05/27 07:46:45;;;;;;;5.40;1.40;;;;;;;;;;6148854;23;20003;-77
2021/05/27 07:49:30;;;;;;;2.53;1.35;;;;;;;;;;6149647;23;20036;-78
2021/05/27 07:52:15;;;;;;;1.85;1.17;;;;;;;;;;6147621;23;20334;-78
2021/05/27 07:55:01;;;;;;;3.70;1.50;;;;;;;;;;6149807;23;20001;-78
2021/05/27 07:57:46;;;;;;;4.47;1.23;;;;;;;;;;6147911;23;20008;-77
2021/05/27 08:00:31;;;;;;;4.97;1.50;;;;;;;;;;6149798;23;20060;-77
2021/05/27 08:03:16;;;;;;;3.50;1.40;;;;;;;;;;6148261;23;20002;-77
2021/05/27 08:06:02;;;;;;;3.30;1.40;;;;;;;;;;6147949;23;19997;-77
2021/05/27 08:08:47;;;;;;;3.53;1.23;;;;;;;;;;6169291;23;20036;-78
2021/05/27 08:11:33;;;;;;;3.40;1.30;;;;;;;;;;6148345;23;20001;-78
2021/05/27 08:14:18;;;;;;;2.03;1.38;;;;;;;;;;6149189;23;20083;-77
2021/05/27 08:17:03;;;;;;;3.08;1.40;;;;;;;;;;6147686;23;19997;-77
2021/05/27 08:19:48;;;;;;;2.63;1.90;;;;;;;;;;6148614;23;20464;-78
2021/05/27 08:22:34;;;;;;;2.72;1.70;;;;;;;;;;6148247;23;20001;-76
2021/05/27 08:25:19;;;;;;;2.00;1.70;;;;;;;;;;6149786;23;19999;-78
2021/05/27 08:28:04;;;;;;;5.45;1.90;;;;;;;;;;6147504;23;20025;-77
2021/05/27 08:30:49;;;;;;;2.45;1.40;;;;;;;;;;6147090;23;19997;-77
2021/05/27 08:33:35;;;;;;;5.05;1.67;;;;;;;;;;6147747;23;20005;-76
2021/05/27 08:36:20;;;;;;;2.53;1.15;;;;;;;;;;6147980;23;20005;-76
2021/05/27 08:39:06;;;;;;;3.63;1.88;;;;;;;;;;6147310;23;20524;-76
2021/05/27 08:41:51;;;;;;;3.75;1.25;;;;;;;;;;6148526;23;20540;-76
2021/05/27 08:44:39;;;;;;;5.35;1.40;;;;;;;;;;6147381;23;20029;-76
2021/05/27 08:47:24;;;;;;;2.88;1.40;;;;;;;;;;6145049;23;20390;-76
2021/05/27 08:50:09;;;;;;;2.28;1.10;;;;;;;;;;6167764;23;20005;-76
2021/05/27 08:52:56;;;;;;;4.50;1.95;;;;;;;;;;6149409;23;20002;-76
2021/05/27 08:55:41;;;;;;;4.63;2.13;;;;;;;;;;6147479;23;20085;-76
2021/05/27 08:58:27;;;;;;;3.03;1.38;;;;;;;;;;6147748;23;20063;-76
2021/05/27 09:01:12;;;;;;;2.67;1.40;;;;;;;;;;6147495;23;20095;-76
2021/05/27 09:03:57;;;;;;;4.93;1.52;;;;;;;;;;6147818;23;20008;-77
2021/05/27 09:06:51;;;;;;;2.17;1.17;;;;;;;;;;6169502;23;20008;-77
2021/05/27 09:10:00;;;;;;;2.47;1.45;;;;;;;;;;6146803;23;19998;-78
2021/05/27 09:12:45;;;;;;;6.13;1.55;;;;;;;;;;6147070;23;20316;-77
2021/05/27 09:15:31;;;;;;;3.90;1.98;;;;;;;;;;6147595;23;20000;-77
2021/05/27 09:18:29;;;;;;;3.80;1.33;;;;;;;;;;6149065;23;20008;-77
2021/05/27 09:21:15;;;;;;;2.63;1.13;;;;;;;;;;6147382;23;20331;-78
2021/05/27 09:24:01;;;;;;;6.50;1.80;;;;;;;;;;6148970;23;20001;-77
2021/05/27 09:26:54;;;;;;;3.40;1.40;;;;;;;;;;6148171;23;20064;-80
2021/05/27 09:29:43;;;;;;;2.92;1.15;;;;;;;;;;6147863;23;20002;-78
2021/05/27 09:32:28;;;;;;;3.10;1.27;;;;;;;;;;6149127;23;20016;-79
2021/05/27 09:35:14;;;;;;;2.70;1.30;;;;;;;;;;6146905;23;20138;-79
2021/05/27 09:38:00;;;;;;;2.53;1.20;;;;;;;;;;6149561;23;20002;-79
2021/05/27 09:40:48;;;;;;;5.55;1.48;;;;;;;;;;6147811;23;20010;-77
2021/05/27 09:43:33;;;;;;;3.92;1.20;;;;;;;;;;6149566;23;19998;-77
2021/05/27 09:46:23;;;;;;;4.25;2.22;;;;;;;;;;6147470;23;20004;-77
2021/05/27 09:49:09;;;;;;;2.80;1.50;;;;;;;;;;6149121;23;20028;-77
2021/05/27 09:51:55;;;;;;;2.72;1.20;;;;;;;;;;6147265;23;20028;-78
2021/05/27 09:54:51;;;;;;;4.40;1.30;;;;;;;;;;6148450;23;20008;-77
2021/05/27 09:57:36;;;;;;;1.25;1.02;;;;;;;;;;6147807;23;20029;-79
2021/05/27 10:00:21;;;;;;;2.40;1.02;;;;;;;;;;6169639;23;20434;-79
2021/05/27 10:03:26;;;;;;;3.90;1.20;;;;;;;;;;6145639;23;19997;-80
2021/05/27 10:06:12;;;;;;;1.45;1.10;;;;;;;;;;6167673;23;20076;-80
2021/05/27 10:08:57;;;;;;;2.10;0.90;;;;;;;;;;6148972;23;20067;-80
2021/05/27 10:11:42;;;;;;;2.20;1.08;;;;;;;;;;6147383;23;20001;-80
2021/05/27 10:14:28;;;;;;;2.20;1.00;;;;;;;;;;6148713;23;20076;-78
2021/05/27 10:17:13;;;;;;;3.45;1.00;;;;;;;;;;6146950;23;20056;-77
2021/05/27 10:19:58;;;;;;;4.45;1.20;;;;;;;;;;6147862;23;20046;-78
2021/05/27 10:22:44;;;;;;;2.33;1.02;;;;;;;;;;6166584;23;20338;-77
2021/05/27 10:25:32;;;;;;;2.92;1.13;;;;;;;;;;6148262;23;19993;-78
2021/05/27 10:28:17;;;;;;;1.60;1.30;;;;;;;;;;6146391;23;20013;-77
2021/05/27 10:31:03;;;;;;;3.80;1.33;;;;;;;;;;6149286;23;20029;-78
2021/05/27 10:33:49;;;;;;;2.92;1.23;;;;;;;;;;6149322;23;20001;-78
2021/05/27 10:36:43;;;;;;;4.55;2.63;;;;;;;;;;6148882;23;20512;-78
2021/05/27 10:39:29;;;;;;;7.68;3.40;;;;;;;;;;6147576;23;19994;-79
2021/05/27 10:42:15;;;;;;;3.05;1.38;;;;;;;;;;6129148;23;19998;-79
2021/05/27 10:45:06;;;;;;;2.80;1.42;;;;;;;;;;6149941;23;20695;-76
2021/05/27 10:48:10;;;;;;;2.55;1.50;;;;;;;;;;6148900;23;20378;-77
2021/05/27 10:53:48;;;;;;;1.30;1.15;;;;;;;;;;6147629;23;20753;-78
2021/05/27 10:56:33;;;;;;;3.50;1.55;;;;;;;;;;6169692;23;20007;-78
2021/05/27 10:59:19;;;;;;;6.35;1.55;;;;;;;;;;6147399;23;20465;-77
2021/05/27 11:02:07;;;;;;;2.67;1.48;;;;;;;;;;6149733;23;20545;-77
2021/05/27 11:05:12;;;;;;;2.78;1.40;;;;;;;;;;6168310;23;20168;-77
2021/05/27 11:08:16;;;;;;;3.25;1.20;;;;;;;;;;6150193;23;20180;-76
2021/05/27 11:11:20;;;;;;;6.65;1.25;;;;;;;;;;6149795;23;19997;-76
2021/05/27 11:14:20;;;;;;;1.63;1.45;;;;;;;;;;6148916;23;20001;-76
2021/05/27 11:17:15;;;;;;;3.42;1.50;;;;;;;;;;6171102;23;20002;-76
2021/05/27 11:20:05;;;;;;;4.10;1.60;;;;;;;;;;6148654;23;20025;-77
2021/05/27 11:23:00;;;;;;;6.28;1.60;;;;;;;;;;6150220;23;20446;-76
2021/05/27 11:25:45;;;;;;;4.82;1.63;;;;;;;;;;6147996;23;20089;-77
2021/05/27 11:28:30;;;;;;;2.55;1.38;;;;;;;;;;6150116;23;20005;-77
2021/05/27 11:31:36;;;;;;;2.97;1.50;;;;;;;;;;6149132;23;20473;-77
2021/05/27 11:34:21;;;;;;;3.45;1.65;;;;;;;;;;6149992;23;20001;-77
2021/05/27 11:37:06;;;;;;;3.20;1.65;;;;;;;;;;6170760;23;19998;-78
2021/05/27 11:39:51;;;;;;;5.50;1.45;;;;;;;;;;6149102;23;20047;-77
2021/05/27 11:42:37;;;;;;;3.20;1.42;;;;;;;;;;6169885;23;20009;-77
2021/05/27 11:45:23;;;;;;;1.33;1.00;;;;;;;;;;6169672;23;20427;-78
2021/05/27 11:48:17;;;;;;;2.85;1.20;;;;;;;;;;6170517;23;20021;-77
2021/05/27 11:51:13;;;;;;;2.63;1.25;;;;;;;;;;6146509;23;19998;-76
2021/05/27 11:54:06;;;;;;;4.97;1.55;;;;;;;;;;6147018;23;20008;-77
2021/05/27 11:56:52;;;;;;;2.97;1.38;;;;;;;;;;6173165;23;19994;-78
2021/05/27 11:59:37;;;;;;;3.50;1.25;;;;;;;;;;6170218;23;19998;-78
2021/05/27 12:02:39;;;;;;;4.32;1.45;;;;;;;;;;6146031;23;20005;-77
2021/05/27 12:05:25;;;;;;;3.63;1.40;;;;;;;;;;6167249;23;20482;-76
2021/05/27 12:08:13;;;;;;;4.32;1.75;;;;;;;;;;6168248;23;20366;-78
2021/05/27 12:10:58;;;;;;;4.95;1.73;;;;;;;;;;6147870;23;19997;-76
2021/05/27 12:13:44;;;;;;;4.68;1.70;;;;;;;;;;6149587;23;20001;-78
2021/05/27 12:16:30;;;;;;;4.20;1.40;;;;;;;;;;6147553;23;20009;-77
2021/05/27 12:19:16;;;;;;;3.97;1.20;;;;;;;;;;6146700;23;20067;-76
2021/05/27 12:22:01;;;;;;;1.95;1.17;;;;;;;;;;6147708;23;19997;-77
2021/05/27 12:24:47;;;;;;;4.57;1.48;;;;;;;;;;6170090;23;20012;-78
2021/05/27 12:27:37;;;;;;;2.50;1.30;;;;;;;;;;6168239;23;20002;-77
2021/05/27 12:30:24;;;;;;;5.22;2.78;;;;;;;;;;6149163;23;20013;-77
2021/05/27 12:33:14;;;;;;;4.78;2.90;;;;;;;;;;6147870;23;20008;-77
2021/05/27 12:36:06;;;;;;;5.28;1.30;;;;;;;;;;6128307;23;20446;-77
2021/05/27 12:38:51;;;;;;;3.97;1.33;;;;;;;;;;6168266;23;20326;-77
2021/05/27 12:41:49;;;;;;;3.25;2.03;;;;;;;;;;6149321;23;20001;-77
2021/05/27 12:44:43;;;;;;;4.25;1.20;;;;;;;;;;6149485;23;20016;-78
2021/05/27 12:47:29;;;;;;;3.03;1.30;;;;;;;;;;6147728;23;20005;-76
2021/05/27 12:50:21;;;;;;;2.72;1.40;;;;;;;;;;6170042;23;20008;-77
2021/05/27 12:53:20;;;;;;;2.70;1.30;;;;;;;;;;6168723;23;20050;-77
2021/05/27 12:56:15;;;;;;;2.28;1.20;;;;;;;;;;6149457;23;19994;-77
2021/05/27 12:59:06;;;;;;;1.23;0.80;;;;;;;;;;6145521;23;19997;-76
2021/05/27 13:01:57;;;;;;;1.83;1.33;;;;;;;;;;6144685;23;20005;-77
2021/05/27 13:04:42;;;;;;;1.27;1.05;;;;;;;;;;6148255;23;20039;-77
2021/05/27 13:07:28;;;;;;;3.78;1.20;;;;;;;;;;6147461;23;20008;-77
2021/05/27 13:10:25;;;;;;;2.67;0.95;;;;;;;;;;6147821;23;20001;-77
2021/05/27 13:13:10;;;;;;;6.03;4.47;;;;;;;;;;6170335;23;20324;-77
2021/05/27 13:15:55;;;;;;;3.40;1.95;;;;;;;;;;6148876;23;20066;-77
2021/05/27 13:18:50;;;;;;;1.33;1.00;;;;;;;;;;6141955;23;20014;-77
2021/05/27 13:21:36;;;;;;;4.03;1.15;;;;;;;;;;6148710;23;20081;-76
2021/05/27 13:24:31;;;;;;;1.38;1.00;;;;;;;;;;6147756;23;20005;-78
2021/05/27 13:27:26;;;;;;;2.30;1.10;;;;;;;;;;6149764;23;20001;-77
2021/05/27 13:33:37;;;;;;;1.75;1.30;;;;;;;;;;6135932;23;20033;-77
2021/05/27 13:36:25;;;;;;;3.28;1.15;;;;;;;;;;6147514;23;20080;-76
2021/05/27 13:39:23;;;;;;;2.50;1.27;;;;;;;;;;6146872;23;20426;-78
2021/05/27 13:42:08;;;;;;;2.58;1.10;;;;;;;;;;6148540;23;20450;-77
2021/05/27 13:44:53;;;;;;;1.65;1.08;;;;;;;;;;6145754;23;20089;-78
2021/05/27 13:47:38;;;;;;;2.88;1.00;;;;;;;;;;6170385;23;20037;-78
2021/05/27 13:50:25;;;;;;;3.65;1.35;;;;;;;;;;6147786;23;20863;-78
2021/05/27 13:53:11;;;;;;;1.30;1.02;;;;;;;;;;6148228;23;20009;-78
2021/05/27 13:55:58;;;;;;;2.45;1.00;;;;;;;;;;6147747;23;19993;-77
2021/05/27 13:58:43;;;;;;;2.25;1.10;;;;;;;;;;6148717;23;20076;-77
2021/05/27 14:01:29;;;;;;;2.22;1.10;;;;;;;;;;6147319;23;19997;-76
2021/05/27 14:04:14;;;;;;;1.65;1.10;;;;;;;;;;6147906;23;20033;-77
2021/05/27 14:07:00;;;;;;;2.08;1.33;;;;;;;;;;6147497;23;20393;-76
2021/05/27 14:09:45;;;;;;;2.25;0.82;;;;;;;;;;6150795;23;20002;-77
2021/05/27 14:12:30;;;;;;;2.30;1.17;;;;;;;;;;6149149;23;20033;-76
2021/05/27 14:15:16;;;;;;;6.53;1.30;;;;;;;;;;6171117;23;20006;-77
2021/05/27 14:18:01;;;;;;;5.75;1.25;;;;;;;;;;6149610;23;20374;-77
2021/05/27 14:20:46;;;;;;;2.08;1.15;;;;;;;;;;6150818;23;20005;-79
2021/05/27 14:23:31;;;;;;;3.28;1.45;;;;;;;;;;6148067;23;20438;-78
2021/05/27 14:26:17;;;;;;;2.05;1.17;;;;;;;;;;6149706;23;20033;-79
2021/05/27 14:29:02;;;;;;;2.78;1.00;;;;;;;;;;6150613;23;19993;-77
2021/05/27 14:31:51;;;;;;;3.47;1.10;;;;;;;;;;6147314;23;20064;-77
2021/05/27 14:34:36;;;;;;;2.13;1.27;;;;;;;;;;6150199;23;20009;-77
2021/05/27 14:37:22;;;;;;;1.63;1.00;;;;;;;;;;6149649;23;19997;-79
2021/05/27 14:40:07;;;;;;;4.00;1.48;;;;;;;;;;6150049;23;20089;-78
2021/05/27 14:42:52;;;;;;;5.10;1.50;;;;;;;;;;6148085;23;19997;-78
2021/05/27 14:45:37;;;;;;;1.35;1.15;;;;;;;;;;6150574;23;20001;-78
2021/05/27 14:48:23;;;;;;;2.10;1.35;;;;;;;;;;6148774;23;20072;-77
2021/05/27 14:51:08;;;;;;;2.60;1.20;;;;;;;;;;6150244;23;20001;-77
2021/05/27 14:53:53;;;;;;;3.60;1.40;;;;;;;;;;6149018;23;20001;-79
2021/05/27 14:56:38;;;;;;;4.72;1.42;;;;;;;;;;6150721;23;20342;-79
2021/05/27 14:59:24;;;;;;;1.92;1.20;;;;;;;;;;6148645;23;19999;-78
2021/05/27 15:02:09;;;;;;;4.35;1.23;;;;;;;;;;6149673;23;20056;-77
2021/05/27 15:04:54;;;;;;;2.40;0.90;;;;;;;;;;6149850;23;20435;-77
2021/05/27 15:07:40;;;;;;;1.25;1.02;;;;;;;;;;6169027;23;20052;-77
2021/05/27 15:10:25;;;;;;;5.03;1.35;;;;;;;;;;6149988;23;20448;-77
2021/05/27 15:13:10;;;;;;;2.00;1.33;;;;;;;;;;6169329;23;20009;-78
2021/05/27 15:15:56;;;;;;;15.25;9.25;;;;;;;;;;6150233;23;20004;-78
2021/05/27 15:18:41;;;;;;;7.55;3.70;;;;;;;;;;6148294;23;20324;-80
2021/05/27 15:21:26;;;;;;;3.92;1.38;;;;;;;;;;6170151;23;20052;-79
2021/05/27 15:24:11;;;;;;;1.70;0.93;;;;;;;;;;6148563;23;20001;-79
2021/05/27 15:26:57;;;;;;;3.65;1.30;;;;;;;;;;6150148;23;20005;-79
2021/05/27 15:29:42;;;;;;;3.70;1.10;;;;;;;;;;6146112;23;20001;-79
2021/05/27 15:32:27;;;;;;;3.65;1.02;;;;;;;;;;6170383;23;20008;-79
2021/05/27 15:35:13;;;;;;;2.88;1.38;;;;;;;;;;6166982;23;20307;-79
2021/05/27 15:37:58;;;;;;;5.20;1.50;;;;;;;;;;6150643;23;20588;-80
2021/05/27 15:40:45;;;;;;;2.05;1.13;;;;;;;;;;6167061;23;20541;-79
2021/05/27 15:43:32;;;;;;;1.33;1.00;;;;;;;;;;6150121;23;20925;-79
2021/05/27 15:46:17;;;;;;;4.60;1.20;;;;;;;;;;6146170;23;19994;-79
2021/05/27 15:49:03;;;;;;;1.35;1.23;;;;;;;;;;6169851;23;20210;-80
2021/05/27 15:51:48;;;;;;;2.90;1.05;;;;;;;;;;6170118;23;20001;-80
2021/05/27 15:54:33;;;;;;;4.32;1.23;;;;;;;;;;6169126;23;19997;-79
2021/05/27 15:57:19;;;;;;;5.97;1.35;;;;;;;;;;6171042;23;20084;-79
2021/05/27 16:00:06;;;;;;;3.60;1.10;;;;;;;;;;6148577;23;20002;-79
2021/05/27 16:02:51;;;;;;;2.35;1.25;;;;;;;;;;6170093;23;19998;-79
2021/05/27 16:05:36;;;;;;;4.85;2.20;;;;;;;;;;6148127;23;20001;-80
2021/05/27 16:08:22;;;;;;;3.17;1.50;;;;;;;;;;6149800;23;20140;-80
2021/05/27 16:11:07;;;;;;;1.90;1.17;;;;;;;;;;6148551;23;20426;-79
2021/05/27 16:13:52;;;;;;;3.92;1.33;;;;;;;;;;6168483;23;20457;-78
2021/05/27 16:16:37;;;;;;;2.53;1.55;;;;;;;;;;6148222;23;20001;-79
2021/05/27 16:19:23;;;;;;;2.75;1.17;;;;;;;;;;6149510;23;20017;-79
2021/05/27 16:22:08;;;;;;;2.03;1.25;;;;;;;;;;6147951;23;20002;-79
2021/05/27 16:24:53;;;;;;;2.35;1.42;;;;;;;;;;6170212;23;20001;-80
2021/05/27 16:27:38;;;;;;;2.67;1.10;;;;;;;;;;6169726;23;20694;-79
2021/05/27 16:30:24;;;;;;;2.60;1.52;;;;;;;;;;6169790;23;20326;-78
2021/05/27 16:33:11;;;;;;;1.33;1.20;;;;;;;;;;6147634;23;20461;-79
2021/05/27 16:38:45;;;;;;;3.47;1.35;;;;;;;;;;6148699;23;20386;-78
2021/05/27 16:41:39;;;;;;;2.58;1.13;;;;;;;;;;6146114;23;20490;-78
2021/05/27 16:44:27;;;;;;;4.22;1.30;;;;;;;;;;6149996;23;20001;-79
2021/05/27 16:47:12;;;;;;;3.40;1.27;;;;;;;;;;6148039;23;20099;-79
2021/05/27 16:49:57;;;;;;;3.67;1.38;;;;;;;;;;6150030;23;20048;-79
2021/05/27 16:52:46;;;;;;;3.92;1.23;;;;;;;;;;6168923;23;20048;-80
2021/05/27 16:55:31;;;;;;;1.57;1.00;;;;;;;;;;6149124;23;20032;-80